Time;durP1;ratioP1;P1;durP2;ratioP2;P2;SDS_P1;SDS_P2;PMS_P1;PMS_P2;Temp;Humidity;BMP_temperature;BMP_pressure;BME280_temperature;BME280_humidity;BME280_pressure;Samples;Min_cycle;Max_cycle;Signal;HPM_P1;HPM_P2
2021/09/16 00:00:32;;;;;;;4.05;3.85;;;20.70;71.00;;;;;;4996060;28;20527;-84
2021/09/16 00:02:58;;;;;;;4.28;3.97;;;20.70;71.00;;;;;;4996118;28;20026;-85
2021/09/16 00:05:24;;;;;;;4.50;4.20;;;20.60;71.00;;;;;;4982703;28;20508;-85
2021/09/16 00:07:50;;;;;;;4.65;4.35;;;20.60;71.00;;;;;;5001384;28;20034;-86
2021/09/16 00:10:16;;;;;;;4.53;4.22;;;20.60;71.00;;;;;;5004328;28;20030;-86
2021/09/16 00:12:42;;;;;;;4.85;4.45;;;20.60;71.10;;;;;;5000972;28;20041;-85
2021/09/16 00:15:09;;;;;;;4.30;4.10;;;20.60;71.10;;;;;;4995935;28;20026;-85
2021/09/16 00:17:35;;;;;;;4.78;4.57;;;20.50;71.10;;;;;;4998073;28;20034;-85
2021/09/16 00:20:02;;;;;;;4.45;4.15;;;20.50;71.10;;;;;;5002073;28;20030;-85
2021/09/16 00:22:29;;;;;;;4.70;4.30;;;20.60;71.10;;;;;;4976121;28;20042;-85
2021/09/16 00:24:55;;;;;;;3.88;3.67;;;20.60;71.10;;;;;;5029685;28;20057;-86
2021/09/16 00:27:21;;;;;;;3.85;3.65;;;20.50;71.10;;;;;;4998916;28;20034;-85
2021/09/16 00:29:47;;;;;;;6.00;4.00;;;20.50;71.10;;;;;;5009907;28;20049;-85
2021/09/16 00:32:13;;;;;;;4.28;4.07;;;20.50;71.10;;;;;;4987770;28;20027;-85
2021/09/16 00:34:39;;;;;;;4.32;4.13;;;20.50;71.20;;;;;;4990223;28;20043;-85
2021/09/16 00:37:05;;;;;;;4.82;4.47;;;20.50;71.20;;;;;;4983175;28;20030;-85
2021/09/16 00:39:31;;;;;;;3.42;3.30;;;20.50;71.20;;;;;;4990632;28;20027;-85
2021/09/16 00:41:57;;;;;;;4.75;4.30;;;20.40;71.20;;;;;;4977546;28;20023;-85
2021/09/16 00:44:23;;;;;;;4.43;4.13;;;20.50;71.30;;;;;;4974042;28;20050;-86
2021/09/16 00:46:50;;;;;;;4.18;3.97;;;20.40;71.20;;;;;;4990076;28;20038;-85
2021/09/16 00:49:16;;;;;;;5.00;4.70;;;20.40;71.20;;;;;;5022549;28;20490;-85
2021/09/16 00:51:43;;;;;;;4.57;4.28;;;20.40;71.20;;;;;;4984942;28;20439;-86
2021/09/16 00:54:09;;;;;;;4.35;4.15;;;20.40;71.20;;;;;;4995011;28;20395;-85
2021/09/16 00:56:36;;;;;;;4.63;4.32;;;20.40;71.20;;;;;;4980754;28;20045;-85
2021/09/16 00:59:02;;;;;;;4.85;4.55;;;20.50;71.20;;;;;;4972336;28;20061;-85
2021/09/16 01:01:29;;;;;;;4.63;4.35;;;20.40;71.20;;;;;;4983936;28;20037;-85
2021/09/16 01:03:56;;;;;;;13.68;4.38;;;20.40;71.20;;;;;;4978312;28;20047;-85
2021/09/16 01:06:26;;;;;;;4.53;4.22;;;20.50;71.20;;;;;;4975088;28;20050;-85
2021/09/16 01:08:52;;;;;;;3.85;3.65;;;20.50;71.20;;;;;;4975894;28;20039;-85
2021/09/16 01:11:20;;;;;;;4.35;4.05;;;20.50;71.20;;;;;;4974390;28;20026;-85
2021/09/16 01:13:46;;;;;;;4.20;4.00;;;20.50;71.20;;;;;;4977290;28;20030;-85
2021/09/16 01:16:13;;;;;;;4.13;3.92;;;20.50;71.10;;;;;;4983096;28;20042;-85
2021/09/16 01:18:39;;;;;;;4.38;4.18;;;20.50;71.20;;;;;;4996614;28;20044;-85
2021/09/16 01:21:05;;;;;;;4.10;3.90;;;20.40;71.10;;;;;;5004393;28;20029;-86
2021/09/16 01:23:31;;;;;;;4.07;3.88;;;20.40;71.20;;;;;;5003131;28;20048;-85
2021/09/16 01:25:58;;;;;;;4.43;4.18;;;20.40;71.20;;;;;;4997017;28;20099;-85
2021/09/16 01:28:24;;;;;;;4.72;4.30;;;20.40;71.20;;;;;;5003322;28;20034;-86
2021/09/16 01:30:50;;;;;;;4.63;4.20;;;20.40;71.20;;;;;;5002308;28;20041;-85
2021/09/16 01:33:16;;;;;;;4.53;4.32;;;20.40;71.20;;;;;;5005265;28;20034;-85
2021/09/16 01:35:42;;;;;;;4.53;4.22;;;20.40;71.20;;;;;;4990507;28;20078;-85
2021/09/16 01:38:08;;;;;;;4.20;4.00;;;20.40;71.20;;;;;;5007429;28;20033;-84
2021/09/16 01:40:34;;;;;;;4.90;4.60;;;20.40;71.20;;;;;;4991339;28;20053;-85
2021/09/16 01:43:00;;;;;;;4.68;4.38;;;20.40;71.20;;;;;;5024184;28;20046;-85
2021/09/16 01:45:27;;;;;;;4.07;3.88;;;20.40;71.20;;;;;;5002911;28;20300;-85
2021/09/16 01:47:53;;;;;;;4.63;4.32;;;20.40;71.30;;;;;;5004349;28;20486;-84
2021/09/16 01:50:20;;;;;;;4.40;4.15;;;20.40;71.20;;;;;;5005439;28;20038;-85
2021/09/16 01:52:46;;;;;;;4.93;4.63;;;20.40;71.20;;;;;;4996946;28;20495;-85
2021/09/16 01:55:13;;;;;;;4.75;4.40;;;20.40;71.20;;;;;;5001957;28;20049;-84
2021/09/16 01:57:39;;;;;;;5.00;4.65;;;20.40;71.10;;;;;;5001616;28;20046;-85
2021/09/16 02:00:07;;;;;;;5.05;4.45;;;20.40;71.90;;;;;;4987918;28;20042;-85
2021/09/16 02:02:33;;;;;;;4.75;3.95;;;20.40;71.10;;;;;;4982048;28;20038;-85
2021/09/16 02:04:59;;;;;;;4.40;4.20;;;20.40;71.10;;;;;;4985801;28;20034;-86
2021/09/16 02:07:26;;;;;;;3.97;3.78;;;20.40;71.10;;;;;;4984956;28;20034;-86
2021/09/16 02:09:52;;;;;;;4.53;4.25;;;20.30;71.10;;;;;;4988946;28;20038;-86
2021/09/16 02:12:18;;;;;;;6.25;5.10;;;20.40;71.20;;;;;;4995709;28;20044;-86
2021/09/16 02:14:44;;;;;;;4.55;4.13;;;20.40;71.20;;;;;;4995667;28;20034;-86
2021/09/16 02:17:10;;;;;;;4.97;4.20;;;20.40;71.10;;;;;;5020161;28;20041;-86
2021/09/16 02:19:36;;;;;;;4.47;4.20;;;20.40;71.10;;;;;;5030427;28;20464;-86
2021/09/16 02:22:03;;;;;;;4.53;4.18;;;20.40;71.10;;;;;;5023069;28;20030;-85
2021/09/16 02:24:29;;;;;;;4.32;4.03;;;20.40;71.10;;;;;;4989098;28;20057;-85
2021/09/16 02:26:55;;;;;;;5.82;4.78;;;20.40;71.10;;;;;;4992646;28;20391;-85
2021/09/16 02:29:21;;;;;;;3.97;3.78;;;20.40;71.10;;;;;;5004988;28;20049;-85
2021/09/16 02:31:47;;;;;;;4.45;4.15;;;20.40;71.10;;;;;;5007320;28;20025;-85
2021/09/16 02:34:13;;;;;;;4.88;4.47;;;20.40;71.20;;;;;;5000507;28;20038;-85
2021/09/16 02:36:39;;;;;;;4.55;4.15;;;20.30;71.20;;;;;;4999316;28;20042;-86
2021/09/16 02:39:05;;;;;;;4.05;3.80;;;20.30;71.20;;;;;;5014295;28;20034;-86
2021/09/16 02:41:31;;;;;;;4.40;4.10;;;20.30;71.20;;;;;;5007443;28;20035;-85
2021/09/16 02:43:57;;;;;;;4.55;4.25;;;20.30;71.10;;;;;;5008638;28;20042;-85
2021/09/16 02:46:23;;;;;;;4.93;4.53;;;20.30;71.10;;;;;;5045230;28;20033;-85
2021/09/16 02:48:50;;;;;;;4.75;3.85;;;20.40;71.20;;;;;;5007870;28;20490;-85
2021/09/16 02:51:16;;;;;;;4.55;4.15;;;20.30;71.10;;;;;;4998411;28;20045;-85
2021/09/16 02:53:42;;;;;;;4.88;4.47;;;20.30;71.20;;;;;;4996859;28;20030;-85
2021/09/16 02:56:08;;;;;;;4.43;4.20;;;20.20;71.20;;;;;;4998640;28;20026;-85
2021/09/16 02:58:34;;;;;;;4.55;4.30;;;20.20;71.20;;;;;;5001601;28;20030;-86
2021/09/16 03:01:00;;;;;;;5.05;4.63;;;20.20;71.30;;;;;;5001979;28;20042;-85
2021/09/16 03:03:26;;;;;;;5.30;4.90;;;20.20;71.40;;;;;;5001169;28;20041;-85
2021/09/16 03:05:53;;;;;;;4.88;4.57;;;20.10;71.40;;;;;;4994026;28;20422;-84
2021/09/16 03:08:19;;;;;;;4.80;4.53;;;20.10;71.50;;;;;;5006860;28;20498;-85
2021/09/16 03:10:45;;;;;;;4.50;4.20;;;20.10;71.50;;;;;;4997560;28;20037;-86
2021/09/16 03:13:11;;;;;;;4.20;4.00;;;20.10;71.50;;;;;;5004534;28;20030;-86
2021/09/16 03:15:37;;;;;;;5.20;4.90;;;20.10;71.50;;;;;;5001793;28;20034;-86
2021/09/16 03:18:03;;;;;;;4.75;4.55;;;20.10;71.50;;;;;;4996301;28;20030;-86
2021/09/16 03:20:29;;;;;;;5.18;4.80;;;20.10;71.50;;;;;;4998030;28;20513;-86
2021/09/16 03:22:56;;;;;;;4.80;4.50;;;20.00;71.50;;;;;;4997043;28;20042;-86
2021/09/16 03:25:22;;;;;;;4.68;4.32;;;20.00;71.60;;;;;;4999102;28;20034;-86
2021/09/16 03:27:48;;;;;;;4.07;3.88;;;20.00;71.60;;;;;;4997436;28;20027;-86
2021/09/16 03:30:14;;;;;;;4.63;4.43;;;20.00;71.70;;;;;;4990536;28;20045;-86
2021/09/16 03:32:41;;;;;;;4.15;3.95;;;20.00;71.70;;;;;;4997115;28;20395;-86
2021/09/16 03:35:07;;;;;;;4.35;4.05;;;19.90;71.70;;;;;;4998272;28;20503;-86
2021/09/16 03:37:33;;;;;;;5.28;4.97;;;19.90;71.80;;;;;;5011024;28;20030;-85
2021/09/16 03:39:59;;;;;;;5.22;4.05;;;19.90;71.80;;;;;;5008696;28;20031;-86
2021/09/16 03:42:26;;;;;;;12.05;4.90;;;19.80;71.80;;;;;;5001972;28;20028;-86
2021/09/16 03:44:52;;;;;;;4.22;4.03;;;19.80;71.80;;;;;;4984026;28;20053;-84
2021/09/16 03:47:18;;;;;;;4.68;4.38;;;19.80;71.80;;;;;;4998062;28;20030;-86
2021/09/16 03:49:44;;;;;;;3.97;3.70;;;19.80;72.70;;;;;;4998093;28;20033;-88
2021/09/16 03:52:10;;;;;;;4.18;3.88;;;19.80;72.00;;;;;;5001583;28;20034;-87
2021/09/16 03:54:37;;;;;;;4.60;4.13;;;19.70;71.90;;;;;;4994943;28;20373;-88
2021/09/16 03:57:03;;;;;;;4.18;3.88;;;19.70;72.00;;;;;;5001036;28;20026;-84
2021/09/16 03:59:30;;;;;;;4.65;4.32;;;19.70;72.00;;;;;;5007645;28;20034;-87
2021/09/16 04:01:56;;;;;;;3.85;3.65;;;19.70;71.90;;;;;;4985113;28;20041;-87
2021/09/16 04:04:22;;;;;;;4.10;3.90;;;19.80;71.90;;;;;;5021750;28;20049;-87
2021/09/16 04:06:48;;;;;;;5.07;4.65;;;19.70;71.90;;;;;;5000021;28;20026;-88
2021/09/16 04:09:14;;;;;;;4.28;4.07;;;19.80;71.90;;;;;;5001172;28;20495;-87
2021/09/16 04:11:41;;;;;;;4.78;4.55;;;19.70;71.90;;;;;;4996972;28;20034;-87
2021/09/16 04:14:07;;;;;;;4.22;4.03;;;19.70;71.80;;;;;;4999993;28;20037;-87
2021/09/16 04:16:33;;;;;;;4.32;4.00;;;19.80;71.90;;;;;;5011260;28;20038;-87
2021/09/16 04:18:59;;;;;;;4.68;4.30;;;19.70;71.80;;;;;;5030383;28;20355;-87
2021/09/16 04:21:25;;;;;;;4.00;3.80;;;19.70;71.90;;;;;;4979739;28;20478;-88
2021/09/16 04:23:51;;;;;;;4.45;4.13;;;19.70;71.90;;;;;;5003391;28;20038;-88
2021/09/16 04:26:17;;;;;;;3.70;3.50;;;19.60;71.90;;;;;;5006226;28;20037;-86
2021/09/16 04:28:43;;;;;;;4.45;3.80;;;19.60;72.00;;;;;;5026343;28;20494;-86
2021/09/16 04:31:10;;;;;;;4.47;4.18;;;19.60;72.00;;;;;;4997336;28;20035;-87
2021/09/16 04:33:36;;;;;;;3.88;3.67;;;19.60;72.00;;;;;;4994120;28;20038;-87
2021/09/16 04:36:02;;;;;;;4.20;4.00;;;19.60;72.10;;;;;;4999456;28;20042;-87
2021/09/16 04:38:29;;;;;;;3.67;3.47;;;19.50;72.00;;;;;;4994278;28;20403;-87
2021/09/16 04:40:55;;;;;;;3.80;3.60;;;19.40;72.00;;;;;;4992672;28;20038;-87
2021/09/16 04:43:21;;;;;;;3.83;3.63;;;19.40;72.20;;;;;;4996233;28;20038;-87
2021/09/16 04:45:47;;;;;;;4.07;3.75;;;19.30;72.20;;;;;;5002406;28;20066;-86
2021/09/16 04:48:13;;;;;;;4.53;3.72;;;19.30;72.20;;;;;;4982403;28;20035;-87
2021/09/16 04:50:39;;;;;;;3.42;3.22;;;19.30;72.20;;;;;;4997635;28;20395;-86
2021/09/16 04:53:05;;;;;;;3.60;3.40;;;19.30;72.20;;;;;;5004708;28;20026;-86
2021/09/16 04:55:31;;;;;;;3.97;3.78;;;19.30;72.20;;;;;;5001164;28;20045;-86
2021/09/16 04:57:58;;;;;;;3.78;3.38;;;19.20;72.20;;;;;;5010586;28;20370;-86
2021/09/16 05:00:24;;;;;;;3.70;3.40;;;19.10;72.30;;;;;;4996775;28;20034;-86
2021/09/16 05:02:50;;;;;;;4.10;3.80;;;19.10;72.30;;;;;;4998888;28;20483;-87
2021/09/16 05:05:16;;;;;;;3.50;3.30;;;19.10;72.30;;;;;;4998741;28;20038;-86
2021/09/16 05:07:42;;;;;;;4.05;3.75;;;19.10;72.40;;;;;;4997972;28;20026;-86
2021/09/16 05:10:09;;;;;;;4.63;3.65;;;19.00;72.40;;;;;;4998040;28;20030;-87
2021/09/16 05:12:35;;;;;;;3.72;3.53;;;19.10;72.50;;;;;;4988086;28;20068;-87
2021/09/16 05:15:01;;;;;;;3.38;3.17;;;19.00;72.40;;;;;;4996133;28;20042;-87
2021/09/16 05:17:27;;;;;;;3.72;3.53;;;19.00;72.40;;;;;;4999262;28;20022;-87
2021/09/16 05:19:53;;;;;;;3.75;3.55;;;19.00;72.40;;;;;;4993573;28;20043;-86
2021/09/16 05:22:20;;;;;;;3.60;3.40;;;19.00;72.40;;;;;;4999515;28;20033;-86
2021/09/16 05:24:46;;;;;;;3.92;3.67;;;19.00;72.40;;;;;;5002200;28;20391;-86
2021/09/16 05:27:12;;;;;;;3.70;3.50;;;18.90;72.30;;;;;;4997990;28;20502;-86
2021/09/16 05:29:38;;;;;;;3.38;3.17;;;18.90;72.30;;;;;;4996438;28;20479;-86
2021/09/16 05:32:05;;;;;;;3.20;3.10;;;18.90;72.30;;;;;;4997839;28;20039;-86
2021/09/16 05:34:31;;;;;;;3.28;3.17;;;18.90;72.30;;;;;;5000062;28;20034;-85
2021/09/16 05:36:57;;;;;;;3.65;3.47;;;18.90;72.30;;;;;;4994066;28;20412;-86
2021/09/16 05:39:23;;;;;;;3.90;3.70;;;18.90;72.30;;;;;;4993534;28;20030;-86
2021/09/16 05:41:49;;;;;;;3.20;3.10;;;19.00;72.30;;;;;;4992151;28;20026;-86
2021/09/16 05:44:15;;;;;;;3.92;3.60;;;18.90;72.20;;;;;;4987995;28;20030;-85
2021/09/16 05:46:41;;;;;;;3.85;3.65;;;18.90;72.30;;;;;;5001355;28;20403;-85
2021/09/16 05:49:07;;;;;;;3.65;3.45;;;18.90;72.20;;;;;;5001828;28;20034;-85
2021/09/16 05:51:34;;;;;;;4.00;3.70;;;18.90;72.20;;;;;;4996947;28;20038;-88
2021/09/16 05:54:00;;;;;;;3.70;3.40;;;18.90;72.30;;;;;;4991597;28;20428;-86
2021/09/16 05:56:26;;;;;;;3.88;3.65;;;18.90;72.30;;;;;;4994170;28;20031;-86
2021/09/16 05:58:52;;;;;;;3.20;3.10;;;18.80;72.20;;;;;;5005019;28;20034;-85
2021/09/16 06:01:18;;;;;;;3.47;3.28;;;18.80;72.40;;;;;;4993778;28;20094;-84
2021/09/16 06:03:44;;;;;;;3.70;3.50;;;18.80;72.40;;;;;;4997573;28;20026;-83
2021/09/16 06:06:10;;;;;;;4.80;3.85;;;18.70;72.40;;;;;;4996352;28;20038;-84
2021/09/16 06:08:37;;;;;;;3.20;3.10;;;18.70;72.40;;;;;;4996329;28;20034;-84
2021/09/16 06:11:03;;;;;;;3.72;3.53;;;18.70;72.40;;;;;;4986417;28;20049;-83
2021/09/16 06:13:29;;;;;;;3.45;3.28;;;18.70;72.40;;;;;;4968403;28;20034;-84
2021/09/16 06:15:55;;;;;;;3.45;3.22;;;18.70;72.40;;;;;;4988865;28;20030;-83
2021/09/16 06:18:21;;;;;;;3.95;3.75;;;18.70;72.40;;;;;;4988587;28;20386;-86
2021/09/16 06:20:49;;;;;;;3.85;3.65;;;18.60;72.50;;;;;;4994314;28;20057;-86
2021/09/16 06:23:16;;;;;;;2.90;2.80;;;18.60;72.60;;;;;;4989748;28;20022;-84
2021/09/16 06:25:42;;;;;;;3.72;3.42;;;18.50;72.60;;;;;;4977104;28;20500;-85
2021/09/16 06:28:09;;;;;;;4.28;3.92;;;18.50;72.70;;;;;;5001803;28;20026;-89
2021/09/16 06:30:35;;;;;;;3.80;3.60;;;18.50;72.60;;;;;;4992550;28;20050;-88
2021/09/16 06:33:01;;;;;;;3.50;3.30;;;18.40;72.60;;;;;;4989192;28;20041;-83
2021/09/16 06:35:27;;;;;;;3.20;3.00;;;18.40;72.70;;;;;;4985938;28;20050;-83
2021/09/16 06:37:53;;;;;;;3.70;3.50;;;18.40;72.70;;;;;;4989461;28;20033;-82
2021/09/16 06:40:19;;;;;;;3.33;3.13;;;18.40;72.70;;;;;;4999097;28;20038;-82
2021/09/16 06:42:45;;;;;;;3.80;3.50;;;18.40;73.40;;;;;;4990590;28;20034;-83
2021/09/16 06:45:12;;;;;;;3.20;3.10;;;18.40;72.60;;;;;;5015416;28;20046;-85
2021/09/16 06:47:38;;;;;;;4.40;4.00;;;18.40;72.60;;;;;;4986841;28;20027;-83
2021/09/16 06:50:05;;;;;;;4.03;3.65;;;18.50;72.60;;;;;;5005821;28;20038;-83
2021/09/16 06:52:31;;;;;;;4.10;3.88;;;18.50;72.70;;;;;;4968247;28;20038;-83
2021/09/16 06:54:58;;;;;;;4.63;4.32;;;18.60;72.50;;;;;;4973711;28;20049;-86
2021/09/16 06:57:24;;;;;;;3.90;3.63;;;18.60;72.30;;;;;;5015509;28;20022;-84
2021/09/16 06:59:50;;;;;;;8.50;3.38;;;18.60;72.30;;;;;;4987311;28;20506;-83
2021/09/16 07:02:16;;;;;;;3.70;3.50;;;18.60;72.40;;;;;;4996635;28;20042;-83
2021/09/16 07:04:42;;;;;;;4.38;4.15;;;18.70;72.30;;;;;;4993027;28;20046;-83
2021/09/16 07:07:09;;;;;;;3.88;3.67;;;18.60;72.20;;;;;;4970666;28;20027;-84
2021/09/16 07:09:35;;;;;;;4.00;3.80;;;18.70;72.20;;;;;;4973494;28;20053;-87
2021/09/16 07:12:01;;;;;;;3.67;3.47;;;18.70;72.10;;;;;;4979087;28;20029;-83
2021/09/16 07:14:30;;;;;;;3.90;3.70;;;18.70;72.10;;;;;;4986948;28;20055;-82
2021/09/16 07:16:56;;;;;;;3.92;3.72;;;18.70;72.10;;;;;;4987938;28;20038;-82
2021/09/16 07:19:23;;;;;;;3.67;3.47;;;18.70;72.10;;;;;;4973465;28;20037;-82
2021/09/16 07:21:49;;;;;;;4.43;4.13;;;18.80;72.00;;;;;;5022276;28;20022;-83
2021/09/16 07:24:15;;;;;;;4.95;4.43;;;18.80;71.90;;;;;;5009497;28;20094;-82
2021/09/16 07:26:42;;;;;;;4.22;4.03;;;18.80;71.90;;;;;;5005139;28;20049;-83
2021/09/16 07:29:08;;;;;;;4.57;4.25;;;18.80;71.90;;;;;;5017937;28;20023;-83
2021/09/16 07:31:34;;;;;;;4.82;4.53;;;18.90;71.80;;;;;;4978235;28;20038;-83
2021/09/16 07:34:01;;;;;;;4.25;4.05;;;18.80;71.80;;;;;;4979250;28;20038;-82
2021/09/16 07:36:27;;;;;;;4.15;3.92;;;18.80;71.80;;;;;;5001053;28;20514;-82
2021/09/16 07:38:53;;;;;;;3.70;3.50;;;18.80;71.80;;;;;;5006298;28;20041;-88
2021/09/16 07:41:19;;;;;;;4.60;4.30;;;18.80;71.80;;;;;;5015171;28;20923;-89
2021/09/16 07:43:46;;;;;;;3.80;3.60;;;18.80;71.90;;;;;;4996827;28;20383;-90
2021/09/16 07:46:12;;;;;;;3.80;3.60;;;18.80;71.90;;;;;;5008264;28;20400;-82
2021/09/16 07:48:38;;;;;;;4.28;4.00;;;18.80;71.90;;;;;;4976372;28;20050;-88
2021/09/16 07:51:04;;;;;;;3.70;3.50;;;18.80;71.80;;;;;;4998162;28;20027;-81
2021/09/16 07:53:30;;;;;;;3.85;3.65;;;18.80;71.70;;;;;;4999056;28;20033;-87
2021/09/16 07:55:58;;;;;;;4.68;4.25;;;18.80;71.70;;;;;;4997892;28;20041;-92
2021/09/16 07:58:24;;;;;;;4.53;4.25;;;18.90;71.70;;;;;;4999897;28;20046;-87
2021/09/16 08:00:53;;;;;;;4.72;4.38;;;19.00;71.60;;;;;;4983371;28;20109;-83
2021/09/16 08:03:19;;;;;;;3.78;3.58;;;19.00;71.50;;;;;;4995975;28;20030;-86
2021/09/16 08:05:46;;;;;;;3.90;3.70;;;19.10;71.40;;;;;;4997237;28;20521;-87
2021/09/16 08:08:12;;;;;;;3.90;3.70;;;19.10;71.30;;;;;;4979974;28;20038;-85
2021/09/16 08:10:38;;;;;;;3.58;3.38;;;19.10;71.30;;;;;;5002653;28;20033;-84
2021/09/16 08:13:05;;;;;;;4.60;4.30;;;19.10;71.30;;;;;;5017668;28;20037;-87
2021/09/16 08:15:31;;;;;;;4.28;4.07;;;19.10;71.20;;;;;;5006850;28;20038;-92
2021/09/16 08:17:59;;;;;;;4.60;4.20;;;19.20;71.30;;;;;;4999617;28;20025;-91
2021/09/16 08:20:25;;;;;;;3.60;3.40;;;19.20;71.20;;;;;;5003446;28;20031;-93
2021/09/16 08:22:52;;;;;;;3.67;3.47;;;19.20;71.10;;;;;;5006511;28;20173;-91
2021/09/16 08:25:18;;;;;;;4.20;3.83;;;19.30;71.10;;;;;;4994137;28;20047;-83
2021/09/16 08:27:44;;;;;;;4.22;3.88;;;19.30;71.00;;;;;;4988456;28;20514;-87
2021/09/16 08:30:11;;;;;;;4.32;4.03;;;19.40;70.90;;;;;;4990994;28;20455;-87
2021/09/16 08:32:37;;;;;;;4.25;3.60;;;19.50;70.80;;;;;;4973312;28;20042;-87
2021/09/16 08:35:05;;;;;;;3.50;3.30;;;19.50;70.70;;;;;;4989907;28;20055;-87
2021/09/16 08:37:31;;;;;;;3.97;3.67;;;19.50;70.70;;;;;;4994946;28;20399;-89
2021/09/16 08:39:57;;;;;;;3.58;3.38;;;19.50;70.60;;;;;;5014670;28;20026;-91
2021/09/16 08:42:24;;;;;;;3.70;3.50;;;19.60;70.50;;;;;;4993030;28;20019;-87
2021/09/16 08:44:51;;;;;;;4.20;4.00;;;19.70;70.40;;;;;;4995961;28;20029;-87
2021/09/16 08:47:18;;;;;;;4.00;3.75;;;19.80;70.30;;;;;;4997194;28;20041;-87
2021/09/16 08:49:44;;;;;;;5.40;4.90;;;19.80;70.10;;;;;;4991414;28;20044;-88
2021/09/16 08:52:10;;;;;;;4.50;4.30;;;19.90;70.00;;;;;;4990076;28;20030;-92
2021/09/16 08:54:36;;;;;;;5.05;4.65;;;19.90;70.60;;;;;;4991536;28;20407;-88
2021/09/16 08:57:02;;;;;;;4.50;4.30;;;19.90;69.80;;;;;;4989300;28;20479;-90
2021/09/16 08:59:29;;;;;;;6.03;5.45;;;20.00;69.80;;;;;;4971908;28;20053;-85
2021/09/16 09:01:55;;;;;;;5.95;5.65;;;20.00;69.80;;;;;;4994925;28;20037;-82
2021/09/16 09:04:21;;;;;;;6.60;6.30;;;20.10;69.70;;;;;;5023821;28;20037;-85
2021/09/16 09:06:48;;;;;;;6.95;6.55;;;20.30;69.50;;;;;;4987102;28;20042;-82
2021/09/16 09:09:15;;;;;;;6.47;6.10;;;20.40;69.10;;;;;;4989326;28;20037;-80
2021/09/16 09:12:11;;;;;;;6.15;5.75;;;20.60;68.80;;;;;;5011916;28;20041;-80
2021/09/16 09:14:46;;;;;;;5.00;4.80;;;20.90;68.40;;;;;;4983401;28;20045;-80
2021/09/16 09:17:31;;;;;;;4.90;4.70;;;21.20;67.90;;;;;;4987853;28;20031;-79
2021/09/16 09:20:05;;;;;;;5.50;5.20;;;21.40;67.40;;;;;;4987043;28;20026;-79
2021/09/16 09:22:34;;;;;;;5.10;4.90;;;21.50;67.10;;;;;;5002774;28;20039;-79
2021/09/16 09:25:08;;;;;;;6.50;6.10;;;21.70;66.90;;;;;;5022228;28;20030;-79
2021/09/16 09:27:37;;;;;;;5.32;5.13;;;21.90;66.60;;;;;;4978379;28;20372;-79
2021/09/16 09:30:10;;;;;;;5.93;5.57;;;22.10;66.20;;;;;;4961882;28;20049;-79
2021/09/16 09:32:52;;;;;;;7.22;6.47;;;22.20;65.80;;;;;;5013332;28;20041;-79
2021/09/16 09:35:43;;;;;;;5.90;5.60;;;22.40;65.40;;;;;;4989825;28;20050;-80
2021/09/16 09:38:26;;;;;;;7.80;6.68;;;22.40;65.20;;;;;;4990556;28;20115;-82
2021/09/16 09:40:55;;;;;;;6.05;5.75;;;22.60;64.90;;;;;;4978833;28;20042;-85
2021/09/16 09:43:24;;;;;;;6.63;5.82;;;22.70;64.70;;;;;;4991464;28;20031;-83
2021/09/16 09:46:18;;;;;;;5.82;5.53;;;22.90;65.40;;;;;;4997774;28;20082;-80
2021/09/16 09:48:44;;;;;;;6.25;5.95;;;23.00;64.40;;;;;;4974780;28;20369;-80
2021/09/16 09:51:13;;;;;;;6.80;6.40;;;23.20;63.80;;;;;;4997055;28;20034;-81
2021/09/16 09:53:44;;;;;;;6.00;5.70;;;23.20;63.60;;;;;;4994359;28;20027;-77
2021/09/16 09:56:14;;;;;;;5.30;5.10;;;23.20;63.60;;;;;;4998623;28;20034;-80
2021/09/16 09:58:40;;;;;;;5.47;5.28;;;23.20;63.70;;;;;;4996322;28;20506;-87
2021/09/16 10:01:30;;;;;;;6.22;5.82;;;23.30;63.70;;;;;;5008790;28;20042;-83
2021/09/16 10:03:56;;;;;;;5.53;5.30;;;23.30;63.60;;;;;;4997190;28;20058;-87
2021/09/16 10:06:32;;;;;;;6.30;5.90;;;23.30;63.50;;;;;;4991763;28;20109;-86
2021/09/16 10:09:15;;;;;;;5.93;5.63;;;23.40;63.40;;;;;;4996822;28;20467;-84
2021/09/16 10:11:43;;;;;;;6.38;5.82;;;23.60;63.00;;;;;;4993472;28;20038;-88
2021/09/16 10:14:10;;;;;;;6.32;5.72;;;23.70;62.60;;;;;;4972176;28;20039;-85
2021/09/16 10:16:36;;;;;;;6.07;5.78;;;23.80;62.30;;;;;;4994570;28;20042;-88
2021/09/16 10:19:03;;;;;;;6.15;5.75;;;23.80;62.10;;;;;;5004658;28;20026;-83
2021/09/16 10:21:29;;;;;;;6.05;5.60;;;23.90;62.10;;;;;;4973221;28;20042;-83
2021/09/16 10:23:55;;;;;;;5.78;5.47;;;23.90;61.90;;;;;;4991446;28;20038;-84
2021/09/16 10:26:37;;;;;;;5.97;5.68;;;24.00;62.60;;;;;;4996851;28;20038;-84
2021/09/16 10:29:05;;;;;;;6.03;5.72;;;23.90;61.80;;;;;;5001278;28;20050;-85
2021/09/16 10:31:31;;;;;;;5.53;5.13;;;23.80;62.00;;;;;;4994406;28;20041;-84
2021/09/16 10:33:57;;;;;;;5.10;4.88;;;23.70;62.20;;;;;;5008243;28;20030;-86
2021/09/16 10:36:24;;;;;;;6.43;5.95;;;23.80;62.20;;;;;;4996122;28;20046;-84
2021/09/16 10:38:52;;;;;;;6.03;5.72;;;23.90;61.80;;;;;;4992073;28;20042;-82
2021/09/16 10:41:30;;;;;;;5.93;5.63;;;24.00;61.20;;;;;;4989496;28;20034;-82
2021/09/16 10:44:00;;;;;;;6.10;5.80;;;24.00;60.90;;;;;;4991955;28;20035;-81
2021/09/16 10:46:45;;;;;;;5.63;5.32;;;24.00;60.50;;;;;;4993291;28;20043;-82
2021/09/16 10:49:23;;;;;;;5.85;5.45;;;24.00;60.50;;;;;;5007446;28;20035;-81
2021/09/16 10:51:56;;;;;;;5.50;5.28;;;24.00;60.30;;;;;;4984819;28;20035;-82
2021/09/16 10:54:29;;;;;;;5.10;4.90;;;24.00;60.30;;;;;;4986783;28;20029;-81
2021/09/16 10:57:04;;;;;;;5.22;4.93;;;24.10;60.00;;;;;;4995928;28;20046;-81
2021/09/16 10:59:51;;;;;;;6.15;5.65;;;24.20;59.80;;;;;;4996915;28;20506;-81
2021/09/16 11:02:21;;;;;;;6.20;5.90;;;24.30;59.50;;;;;;4985396;28;20041;-83
2021/09/16 11:04:59;;;;;;;5.88;5.57;;;24.30;59.10;;;;;;5022534;28;20359;-88
2021/09/16 11:07:35;;;;;;;5.25;5.03;;;24.40;59.70;;;;;;4989683;28;20042;-84
2021/09/16 11:10:20;;;;;;;5.50;5.30;;;24.50;58.90;;;;;;5017557;28;20384;-82
2021/09/16 11:12:46;;;;;;;5.88;5.57;;;24.50;58.80;;;;;;4985059;28;20030;-82
2021/09/16 11:15:14;;;;;;;5.95;5.65;;;24.60;58.50;;;;;;4983016;28;20031;-81
2021/09/16 11:17:41;;;;;;;5.85;5.55;;;24.60;58.40;;;;;;5013184;28;20033;-82
2021/09/16 11:20:09;;;;;;;5.57;5.28;;;24.60;58.40;;;;;;4990396;28;20033;-82
2021/09/16 11:34:33;;;;;;;12.43;11.82;;;24.60;57.40;;;;;;5094253;27;20399;-84
2021/09/16 11:37:07;;;;;;;9.32;8.68;;;25.00;55.80;;;;;;5090328;28;20043;-85
2021/09/16 11:39:33;;;;;;;6.75;6.45;;;24.90;55.90;;;;;;5088210;28;20051;-84
2021/09/16 11:42:20;;;;;;;6.63;6.32;;;24.80;56.10;;;;;;5085509;28;20032;-86
2021/09/16 11:44:57;;;;;;;6.75;6.35;;;24.60;56.50;;;;;;5070810;28;20029;-84
2021/09/16 11:47:24;;;;;;;5.72;5.43;;;24.50;56.80;;;;;;5066212;28;20494;-89
2021/09/16 11:49:51;;;;;;;4.85;4.65;;;24.40;56.80;;;;;;5067952;28;20041;-83
2021/09/16 11:52:20;;;;;;;6.32;6.03;;;24.50;56.90;;;;;;5066630;28;20039;-86
2021/09/16 11:55:09;;;;;;;5.80;5.50;;;24.60;56.70;;;;;;5065377;28;20033;-93
2021/09/16 11:57:58;;;;;;;6.78;6.38;;;24.70;56.60;;;;;;5062495;28;20048;-92
2021/09/16 12:00:29;;;;;;;6.80;6.47;;;24.90;56.40;;;;;;5067500;27;20036;-92
2021/09/16 12:02:55;;;;;;;6.90;6.60;;;25.10;56.10;;;;;;5070354;28;20037;-93
2021/09/16 12:05:41;;;;;;;7.07;6.68;;;25.30;55.90;;;;;;5065774;28;20054;-91
2021/09/16 12:08:29;;;;;;;6.45;6.03;;;25.40;55.70;;;;;;5065507;28;20394;-91
2021/09/16 12:11:05;;;;;;;6.63;6.32;;;25.30;55.80;;;;;;5060366;28;20060;-86
2021/09/16 12:13:39;;;;;;;6.10;5.80;;;25.20;55.90;;;;;;5071672;28;20500;-86
2021/09/16 12:16:13;;;;;;;5.85;5.55;;;25.10;56.10;;;;;;5052047;28;20041;-85
2021/09/16 12:19:01;;;;;;;5.75;5.45;;;25.00;56.30;;;;;;5067369;28;20543;-85
2021/09/16 12:21:30;;;;;;;5.78;5.47;;;25.00;56.50;;;;;;5059014;28;20394;-86
2021/09/16 12:24:04;;;;;;;5.93;5.53;;;24.90;56.60;;;;;;5067664;28;20060;-86
2021/09/16 12:26:31;;;;;;;5.25;5.05;;;24.90;56.70;;;;;;5061265;28;20033;-85
2021/09/16 12:29:08;;;;;;;5.28;5.03;;;24.80;56.80;;;;;;5053987;28;20045;-84
2021/09/16 12:31:37;;;;;;;5.18;4.93;;;24.60;56.80;;;;;;5073361;27;20039;-85
2021/09/16 12:34:13;;;;;;;5.95;5.60;;;24.60;56.90;;;;;;5054579;28;20037;-85
2021/09/16 12:37:10;;;;;;;5.22;5.03;;;24.60;57.00;;;;;;5049103;28;20032;-85
2021/09/16 12:39:49;;;;;;;6.13;5.63;;;24.60;57.00;;;;;;5047925;28;20025;-84
2021/09/16 12:42:44;;;;;;;5.38;5.07;;;24.60;57.00;;;;;;5050209;28;20040;-85
2021/09/16 12:45:12;;;;;;;4.75;4.55;;;24.60;56.90;;;;;;5033792;27;20037;-85
2021/09/16 12:47:49;;;;;;;5.30;5.10;;;24.70;56.90;;;;;;5037905;28;20036;-85
2021/09/16 12:50:16;;;;;;;5.93;5.63;;;24.70;56.90;;;;;;5038635;28;20557;-85
2021/09/16 12:52:42;;;;;;;5.22;5.03;;;24.70;56.90;;;;;;5055960;28;20395;-85
2021/09/16 12:55:12;;;;;;;5.20;5.00;;;24.70;56.90;;;;;;5071926;28;20492;-84
2021/09/16 12:57:40;;;;;;;5.95;5.65;;;24.80;56.80;;;;;;5050400;28;20429;-85
2021/09/16 13:00:08;;;;;;;5.25;5.05;;;24.80;56.70;;;;;;5051932;28;20025;-84
2021/09/16 13:02:47;;;;;;;5.28;5.07;;;24.70;56.60;;;;;;5054589;28;20029;-85